Time;durP1;ratioP1;P1;durP2;ratioP2;P2;SDS_P1;SDS_P2;PMS_P1;PMS_P2;Temp;Humidity;BMP_temperature;BMP_pressure;BME280_temperature;BME280_humidity;BME280_pressure;Samples;Min_cycle;Max_cycle;Signal;HPM_P1;HPM_P2
2022/08/04 00:02:25;;;;;;;1999.90;999.90;;;;;;;19.64;68.85;98987.91;9943812;23;20033;-76
2022/08/04 00:06:36;;;;;;;1999.90;999.90;;;;;;;19.51;69.00;98980.53;9953248;23;20106;-76
2022/08/04 00:10:39;;;;;;;1999.90;999.90;;;;;;;19.41;69.45;98981.91;9953257;23;20123;-76
2022/08/04 00:14:46;;;;;;;1999.90;999.90;;;;;;;19.38;69.96;98978.56;9952730;23;20027;-76
2022/08/04 00:19:02;;;;;;;1999.90;999.90;;;;;;;19.32;70.30;98977.06;9973192;23;20034;-76
2022/08/04 00:23:05;;;;;;;1999.90;999.90;;;;;;;19.31;70.44;98978.84;9967000;23;20015;-76
2022/08/04 00:27:07;;;;;;;1999.90;999.90;;;;;;;19.26;70.70;98983.47;9976403;23;20122;-76
2022/08/04 00:31:10;;;;;;;1999.90;999.90;;;;;;;19.19;71.17;98979.41;9949295;23;20031;-76
2022/08/04 00:35:13;;;;;;;1999.90;999.90;;;;;;;19.15;71.15;98987.53;9977663;23;20019;-76
2022/08/04 00:39:15;;;;;;;1999.90;999.90;;;;;;;19.08;71.03;98979.06;9978938;23;20022;-76
2022/08/04 00:43:24;;;;;;;1999.90;999.90;;;;;;;19.00;70.90;98981.16;9977293;23;20024;-76
2022/08/04 00:47:45;;;;;;;1999.90;999.90;;;;;;;18.92;70.42;98981.53;9973088;23;20038;-76
2022/08/04 00:51:55;;;;;;;1999.90;999.90;;;;;;;18.82;70.85;98974.94;9992503;23;20046;-76
2022/08/04 00:56:48;;;;;;;1999.90;999.90;;;;;;;18.75;71.47;98976.16;9977279;23;20087;-76
2022/08/04 01:01:18;;;;;;;1999.90;999.90;;;;;;;18.70;71.87;98986.91;9948204;23;20026;-76
2022/08/04 01:05:39;;;;;;;1999.90;999.90;;;;;;;18.60;71.97;98975.03;9855258;24;20057;-76
2022/08/04 01:10:01;;;;;;;1999.90;999.90;;;;;;;18.49;72.01;98981.66;9856521;24;20138;-75
2022/08/04 01:14:11;;;;;;;1999.90;999.90;;;;;;;18.45;72.45;98985.34;9879392;24;20024;-75
2022/08/04 01:18:34;;;;;;;1999.90;999.90;;;;;;;18.42;72.61;98979.31;9874384;23;20715;-75
2022/08/04 01:23:22;;;;;;;1999.90;999.90;;;;;;;18.37;72.69;98973.41;9833160;24;21004;-75
2022/08/04 01:27:38;;;;;;;1999.90;999.90;;;;;;;18.40;72.66;98973.25;9827714;24;20028;-75
2022/08/04 01:31:54;;;;;;;1999.90;999.90;;;;;;;18.39;73.31;98970.69;9875000;24;20032;-75
2022/08/04 01:36:03;;;;;;;1999.90;999.90;;;;;;;18.25;73.37;98966.03;9929841;23;20517;-75
2022/08/04 01:40:06;;;;;;;1999.90;999.90;;;;;;;18.15;74.09;98967.34;9977412;23;20087;-75
2022/08/04 01:44:09;;;;;;;1999.90;999.90;;;;;;;18.13;74.45;98963.91;9952614;23;20019;-75
2022/08/04 01:48:12;;;;;;;1999.90;999.90;;;;;;;18.07;74.75;98970.28;9947812;23;20066;-75
2022/08/04 01:52:16;;;;;;;1999.90;999.90;;;;;;;17.98;74.62;98962.78;9951859;23;20026;-75
2022/08/04 01:56:19;;;;;;;1999.90;999.90;;;;;;;17.98;74.69;98962.78;9953761;23;20629;-75
2022/08/04 02:00:26;;;;;;;1999.90;999.90;;;;;;;18.00;74.74;98962.72;9972711;23;20038;-75
2022/08/04 02:04:28;;;;;;;1999.90;999.90;;;;;;;17.97;74.91;98962.84;9983829;23;20030;-75
2022/08/04 02:08:29;;;;;;;1999.90;999.90;;;;;;;17.92;75.19;98962.16;9958367;23;20023;-75
2022/08/04 02:12:55;;;;;;;1999.90;999.90;;;;;;;17.83;75.50;98968.66;9935363;23;20026;-75
2022/08/04 02:16:56;;;;;;;1999.90;999.90;;;;;;;17.80;76.36;98961.78;9963616;23;20077;-75
2022/08/04 02:21:02;;;;;;;1999.90;999.90;;;;;;;17.81;76.37;98958.22;9938209;23;20030;-75
2022/08/04 02:25:07;;;;;;;1999.90;999.90;;;;;;;17.74;76.33;98958.50;9985813;23;20023;-75
2022/08/04 02:29:19;;;;;;;1999.90;999.90;;;;;;;17.71;76.85;98961.28;9961860;23;20323;-75
2022/08/04 02:33:25;;;;;;;1999.90;999.90;;;;;;;17.73;76.44;98948.94;9980648;23;20058;-75
2022/08/04 02:37:30;;;;;;;1999.90;999.90;;;;;;;17.66;76.59;98952.69;9986546;23;20023;-75
2022/08/04 02:41:33;;;;;;;1999.90;999.90;;;;;;;17.53;77.06;98955.81;9985474;23;20047;-75
2022/08/04 02:45:37;;;;;;;1999.90;999.90;;;;;;;17.50;76.96;98952.44;9984501;23;20434;-75
2022/08/04 02:49:41;;;;;;;1999.90;999.90;;;;;;;17.48;77.48;98951.66;9964880;23;20023;-75
2022/08/04 02:53:43;;;;;;;1999.90;999.90;;;;;;;17.40;77.47;98954.56;9989321;23;20315;-75
2022/08/04 02:57:46;;;;;;;1999.90;999.90;;;;;;;17.36;77.26;98955.59;9964079;23;20023;-75
2022/08/04 03:01:48;;;;;;;1999.90;999.90;;;;;;;17.27;77.52;98955.13;9959178;23;20058;-75
2022/08/04 03:06:40;;;;;;;1999.90;999.90;;;;;;;17.20;77.43;98951.88;9962245;23;20364;-75
2022/08/04 03:11:03;;;;;;;1999.90;999.90;;;;;;;17.14;77.82;98960.84;9983602;23;20055;-75
2022/08/04 03:15:41;;;;;;;1999.90;999.90;;;;;;;17.14;78.59;98952.09;9931963;23;20035;-75
2022/08/04 03:20:05;;;;;;;1999.90;999.90;;;;;;;17.13;78.69;98948.63;9958361;23;20035;-75
2022/08/04 03:24:29;;;;;;;1999.90;999.90;;;;;;;17.08;78.87;98960.22;9981195;23;20126;-75
2022/08/04 03:28:52;;;;;;;1999.90;999.90;;;;;;;17.01;79.18;98954.34;9958014;23;20289;-75
2022/08/04 03:33:19;;;;;;;1999.90;999.90;;;;;;;17.01;79.27;98966.59;9977388;23;20348;-75
2022/08/04 03:37:37;;;;;;;1999.90;999.90;;;;;;;16.95;79.14;98958.97;9983818;23;20032;-75
2022/08/04 03:41:57;;;;;;;1999.90;999.90;;;;;;;16.87;79.45;98960.09;9983018;23;20023;-75
2022/08/04 03:46:04;;;;;;;1999.90;999.90;;;;;;;16.82;79.63;98956.78;9978452;23;20431;-75
2022/08/04 03:50:24;;;;;;;1999.90;999.90;;;;;;;16.80;79.59;98961.22;9983127;23;20023;-75
2022/08/04 03:54:43;;;;;;;1999.90;999.90;;;;;;;16.79;79.66;98962.16;9983417;23;20058;-75
2022/08/04 03:59:15;;;;;;;1999.90;999.90;;;;;;;16.79;79.46;98961.28;9982926;23;20027;-75
2022/08/04 04:03:35;;;;;;;1999.90;999.90;;;;;;;16.78;80.13;98957.81;9929343;23;20027;-75
2022/08/04 04:07:57;;;;;;;1999.90;999.90;;;;;;;16.73;80.10;98969.38;9998149;23;20027;-75
2022/08/04 04:12:23;;;;;;;1999.90;999.90;;;;;;;16.70;80.07;98974.75;9973909;23;20031;-75
2022/08/04 04:16:40;;;;;;;1999.90;999.90;;;;;;;16.72;80.52;98965.06;9975640;23;20046;-75
2022/08/04 04:20:48;;;;;;;1999.90;999.90;;;;;;;16.69;80.60;98973.84;9955148;23;20027;-75
2022/08/04 04:25:23;;;;;;;1999.90;999.90;;;;;;;16.67;80.56;98969.59;9978056;23;20047;-76
2022/08/04 04:29:32;;;;;;;1999.90;999.90;;;;;;;16.69;80.62;98973.84;9948359;23;20042;-75
2022/08/04 04:33:47;;;;;;;1999.90;999.90;;;;;;;16.71;80.54;98966.81;9994546;23;20019;-75
2022/08/04 04:38:04;;;;;;;1999.90;999.90;;;;;;;16.76;80.69;98974.50;9954969;23;20023;-75
2022/08/04 04:42:44;;;;;;;1999.90;999.90;;;;;;;16.78;80.51;98973.53;9954767;23;20026;-76
2022/08/04 04:47:07;;;;;;;1999.90;999.90;;;;;;;16.82;80.14;98979.53;9877019;24;20063;-75
2022/08/04 04:51:15;;;;;;;1999.90;999.90;;;;;;;16.86;80.57;98978.50;9913238;23;20411;-75
2022/08/04 04:55:25;;;;;;;1999.90;999.90;;;;;;;16.98;80.42;98980.69;9955550;23;20054;-75
2022/08/04 04:59:33;;;;;;;1999.90;999.90;;;;;;;17.17;79.73;98989.56;9952130;23;20023;-75
2022/08/04 05:04:13;;;;;;;1999.90;999.90;;;;;;;17.40;79.21;98998.34;9948070;23;20027;-76
2022/08/04 05:08:21;;;;;;;1999.90;999.90;;;;;;;17.71;78.17;98991.00;9938775;23;20034;-76
2022/08/04 05:13:05;;;;;;;1999.90;999.90;;;;;;;18.04;75.93;98995.81;9978826;23;20070;-76
2022/08/04 05:17:35;;;;;;;1999.90;999.90;;;;;;;18.37;75.13;98998.81;9954020;23;20330;-76
2022/08/04 05:21:46;;;;;;;1999.90;999.90;;;;;;;18.57;74.09;99000.59;9953815;23;20609;-76
2022/08/04 05:26:09;;;;;;;1999.90;999.90;;;;;;;18.69;73.43;99005.38;9954769;23;20122;-75
2022/08/04 05:30:11;;;;;;;1999.90;999.90;;;;;;;18.91;72.71;99005.28;9949094;23;20495;-74
2022/08/04 05:34:22;;;;;;;1999.90;999.90;;;;;;;19.06;72.21;99007.22;9952700;23;20027;-74
2022/08/04 05:38:28;;;;;;;1999.90;999.90;;;;;;;19.25;71.55;99008.09;9979722;23;20442;-75
2022/08/04 05:42:37;;;;;;;1999.90;999.90;;;;;;;19.84;69.98;99006.25;9980000;23;20023;-75
2022/08/04 05:46:39;;;;;;;1999.90;999.90;;;;;;;20.46;67.59;99004.94;9973829;23;20536;-75
2022/08/04 05:50:42;;;;;;;1999.90;999.90;;;;;;;21.07;65.33;99002.59;9978617;23;20590;-75
2022/08/04 05:54:45;;;;;;;1999.90;999.90;;;;;;;21.40;64.31;99001.75;9956906;23;20023;-75
2022/08/04 05:58:47;;;;;;;1999.90;999.90;;;;;;;21.66;62.95;98997.66;9981161;23;20062;-74
2022/08/04 06:02:51;;;;;;;1999.90;999.90;;;;;;;22.02;61.68;98998.22;9977448;23;20122;-75
2022/08/04 06:06:53;;;;;;;1999.90;999.90;;;;;;;22.64;59.90;99008.75;9981763;23;20035;-75
2022/08/04 06:10:57;;;;;;;1999.90;999.90;;;;;;;23.19;58.51;99003.63;9982696;23;20123;-75
2022/08/04 06:15:00;;;;;;;1999.90;999.90;;;;;;;23.70;56.42;98990.69;9957831;23;20019;-75
2022/08/04 06:19:06;;;;;;;1999.90;999.90;;;;;;;23.92;55.93;98990.16;9976843;23;20050;-75
2022/08/04 06:23:30;;;;;;;1999.90;999.90;;;;;;;24.27;54.72;98997.59;9981424;23;20047;-75
2022/08/04 06:27:32;;;;;;;1999.90;999.90;;;;;;;24.60;54.26;99005.13;9996089;23;20471;-75
2022/08/04 06:31:56;;;;;;;1999.90;999.90;;;;;;;24.87;53.00;98995.22;9943073;23;20042;-75
2022/08/04 06:36:18;;;;;;;1999.90;999.90;;;;;;;25.46;51.63;99000.81;9979151;23;20030;-75
2022/08/04 06:40:21;;;;;;;1999.90;999.90;;;;;;;25.87;50.58;99003.19;9981947;23;20023;-75
2022/08/04 06:44:33;;;;;;;1999.90;999.90;;;;;;;26.49;48.34;99002.13;9981878;23;20019;-75
2022/08/04 06:48:35;;;;;;;1999.90;999.90;;;;;;;26.81;48.27;98999.69;9982064;23;20825;-75
2022/08/04 06:52:38;;;;;;;1999.90;999.90;;;;;;;26.97;47.77;99004.66;9957323;23;20027;-75
2022/08/04 06:56:43;;;;;;;1999.90;999.90;;;;;;;27.30;45.41;99007.38;9955603;23;20023;-76
2022/08/04 07:00:46;;;;;;;1999.90;999.90;;;;;;;27.71;44.88;99007.72;9950161;23;20066;-76
2022/08/04 07:04:48;;;;;;;1999.90;999.90;;;;;;;28.02;44.79;99009.59;9994569;23;20442;-75
2022/08/04 07:08:50;;;;;;;1999.90;999.90;;;;;;;28.00;43.45;99001.69;9955547;23;20136;-75
2022/08/04 07:12:52;;;;;;;1999.90;999.90;;;;;;;28.16;43.23;99000.41;9977888;23;20058;-75
2022/08/04 07:16:55;;;;;;;1999.90;999.90;;;;;;;28.21;42.26;98999.09;9984751;23;20098;-75
2022/08/04 07:20:57;;;;;;;1999.90;999.90;;;;;;;28.39;42.95;98991.38;9980560;23;20122;-75
2022/08/04 07:24:59;;;;;;;1999.90;999.90;;;;;;;28.78;42.23;98997.00;9980703;23;20053;-75
2022/08/04 07:29:01;;;;;;;1999.90;999.90;;;;;;;28.73;40.48;98994.72;9980188;23;20023;-75
2022/08/04 07:33:05;;;;;;;1999.90;999.90;;;;;;;28.73;40.50;98996.53;9948723;23;20724;-75
2022/08/04 07:37:07;;;;;;;1999.90;999.90;;;;;;;28.65;41.94;98993.66;9955295;23;20039;-75
2022/08/04 07:41:08;;;;;;;1999.90;999.90;;;;;;;28.63;40.90;98988.44;9955281;23;20069;-75
2022/08/04 07:45:30;;;;;;;1999.90;999.90;;;;;;;28.83;40.44;98992.94;9975377;23;20030;-75
2022/08/04 07:49:33;;;;;;;1999.90;999.90;;;;;;;29.03;39.56;98993.06;9980200;23;20098;-75
2022/08/04 07:53:56;;;;;;;1999.90;999.90;;;;;;;29.26;39.77;99002.59;9978673;23;20118;-75
2022/08/04 07:57:58;;;;;;;1999.90;999.90;;;;;;;29.36;38.40;99002.66;9978757;23;20023;-75
2022/08/04 08:02:00;;;;;;;1999.90;999.90;;;;;;;29.67;37.91;99007.00;9973932;23;20055;-75
2022/08/04 08:06:03;;;;;;;1999.90;999.90;;;;;;;29.96;37.81;99001.69;9976301;23;20058;-76
2022/08/04 08:10:24;;;;;;;1999.90;999.90;;;;;;;30.47;37.34;99002.44;9977240;23;20401;-76
2022/08/04 08:14:27;;;;;;;1999.90;999.90;;;;;;;30.46;35.54;99000.75;9979321;23;20384;-75
2022/08/04 08:18:29;;;;;;;1999.90;999.90;;;;;;;30.46;35.23;98998.91;9974171;23;20031;-75
2022/08/04 08:22:31;;;;;;;1999.90;999.90;;;;;;;30.55;35.52;98997.22;9954956;23;20023;-77
2022/08/04 08:26:34;;;;;;;1999.90;999.90;;;;;;;30.79;35.15;98994.94;9955762;23;20107;-77
2022/08/04 08:30:36;;;;;;;1999.90;999.90;;;;;;;31.15;35.14;98997.81;9957099;23;20063;-77
2022/08/04 08:34:40;;;;;;;1999.90;999.90;;;;;;;31.67;34.35;98999.00;9984827;23;20335;-77
2022/08/04 08:38:52;;;;;;;1999.90;999.90;;;;;;;31.83;33.62;98993.84;9986839;23;20022;-77
2022/08/04 08:43:05;;;;;;;1999.90;999.90;;;;;;;32.38;32.90;98992.91;9962470;23;20126;-77
2022/08/04 08:48:07;;;;;;;1999.90;999.90;;;;;;;32.59;33.26;98987.19;9957273;23;20038;-77
2022/08/04 08:52:33;;;;;;;1999.90;999.90;;;;;;;32.69;33.06;98996.00;9983304;23;20030;-77
2022/08/04 08:57:15;;;;;;;1999.90;999.90;;;;;;;33.00;31.87;98999.06;9983870;23;20063;-77
2022/08/04 09:02:00;;;;;;;1999.90;999.90;;;;;;;33.23;32.33;98986.78;9980614;23;20051;-77
2022/08/04 09:06:08;;;;;;;1999.90;999.90;;;;;;;33.69;30.96;98997.25;9953312;23;20123;-77
2022/08/04 09:10:31;;;;;;;1999.90;999.90;;;;;;;34.02;30.40;98996.34;9980358;23;20069;-77
2022/08/04 09:14:42;;;;;;;1999.90;999.90;;;;;;;34.29;29.88;98988.94;9952689;23;20024;-77
2022/08/04 09:19:03;;;;;;;1999.90;999.90;;;;;;;34.33;29.60;98993.84;9926513;23;20027;-77
2022/08/04 09:23:14;;;;;;;1999.90;999.90;;;;;;;34.66;29.39;98996.59;9953626;23;20470;-77
2022/08/04 09:27:27;;;;;;;1999.90;999.90;;;;;;;34.78;28.73;99003.28;9978283;23;20054;-76
2022/08/04 09:31:45;;;;;;;1999.90;999.90;;;;;;;34.96;28.59;98997.72;9949778;23;20711;-77
2022/08/04 09:36:26;;;;;;;1999.90;999.90;;;;;;;35.00;27.60;98994.50;9957934;23;20058;-76
2022/08/04 09:40:46;;;;;;;;;;;;;;;35.20;27.75;98995.00;9995551;23;20026;-76
2022/08/04 09:45:15;;;;;;;1999.90;999.90;;;;;;;35.53;27.86;98994.88;9976819;23;19981;-76
2022/08/04 09:49:46;;;;;;;1999.90;999.90;;;;;;;35.68;27.11;98996.66;9976593;23;20102;-76
2022/08/04 09:54:05;;;;;;;1999.90;999.90;;;;;;;35.85;27.40;98983.91;9978057;23;20300;-76
2022/08/04 09:58:21;;;;;;;1999.90;999.90;;;;;;;36.08;27.56;98972.28;9952802;23;20118;-76
2022/08/04 10:02:25;;;;;;;1999.90;999.90;;;;;;;36.24;26.38;98975.69;9973672;23;20042;-76
2022/08/04 10:06:30;;;;;;;1999.90;999.90;;;;;;;36.03;26.39;98968.25;9976980;23;20567;-76
2022/08/04 10:10:53;;;;;;;1999.90;999.90;;;;;;;36.06;26.76;98964.34;9978753;23;20073;-76
2022/08/04 10:15:24;;;;;;;1999.90;999.90;;;;;;;36.32;25.46;98966.72;9910556;23;20122;-76
2022/08/04 10:19:30;;;;;;;1999.90;999.90;;;;;;;36.30;25.14;98961.47;9955816;23;20074;-76
2022/08/04 10:24:10;;;;;;;1999.90;999.90;;;;;;;36.40;25.11;98955.00;9928567;23;20019;-76
2022/08/04 10:28:16;;;;;;;1999.90;999.90;;;;;;;36.50;24.93;98942.06;9978810;23;20552;-76
2022/08/04 10:32:23;;;;;;;1999.90;999.90;;;;;;;36.76;24.65;98953.28;9971250;23;20030;-76
2022/08/04 10:36:29;;;;;;;1999.90;999.90;;;;;;;36.79;24.07;98946.66;9951945;23;20451;-76
2022/08/04 10:40:44;;;;;;;1999.90;999.90;;;;;;;36.95;24.47;98943.81;9954688;23;20421;-76
2022/08/04 10:45:18;;;;;;;1999.90;999.90;;;;;;;36.99;22.28;98934.31;9995418;23;20668;-76
2022/08/04 10:49:35;;;;;;;1999.90;999.90;;;;;;;37.04;23.66;98936.44;9977217;23;20035;-76
2022/08/04 10:53:39;;;;;;;1999.90;999.90;;;;;;;37.22;23.22;98929.63;9955217;23;20024;-76
2022/08/04 10:57:46;;;;;;;1999.90;999.90;;;;;;;37.39;22.52;98926.72;9979267;23;20062;-76
2022/08/04 11:01:51;;;;;;;1999.90;999.90;;;;;;;37.59;22.71;98924.25;9949408;23;20062;-76
2022/08/04 11:06:04;;;;;;;1999.90;999.90;;;;;;;37.66;21.06;98925.16;9955273;23;20332;-76
2022/08/04 11:10:07;;;;;;;1999.90;999.90;;;;;;;37.63;21.12;98929.09;9972060;23;20031;-76
2022/08/04 11:14:11;;;;;;;1999.90;999.90;;;;;;;37.49;20.99;98914.53;9957155;23;20027;-76
2022/08/04 11:18:22;;;;;;;1999.90;999.90;;;;;;;37.41;21.01;98914.66;9975287;23;20035;-76
2022/08/04 11:22:28;;;;;;;1999.90;999.90;;;;;;;37.63;20.75;98915.53;9995437;23;20411;-76
2022/08/04 11:26:50;;;;;;;1999.90;999.90;;;;;;;37.54;20.14;98916.69;9995048;23;20019;-76
2022/08/04 11:31:06;;;;;;;1999.90;999.90;;;;;;;37.81;21.20;98907.00;9949012;23;20489;-76
2022/08/04 11:35:14;;;;;;;1999.90;999.90;;;;;;;38.11;21.04;98910.44;9976826;23;20047;-76
2022/08/04 11:39:34;;;;;;;1999.90;999.90;;;;;;;38.14;20.51;98898.34;9980031;23;20027;-76
2022/08/04 11:43:42;;;;;;;1999.90;999.90;;;;;;;38.07;19.27;98907.28;9995694;23;20066;-76
2022/08/04 11:48:10;;;;;;;1999.90;999.90;;;;;;;38.23;19.82;98895.31;9948645;23;20031;-76
2022/08/04 11:52:13;;;;;;;1999.90;999.90;;;;;;;38.28;20.01;98898.28;9977777;23;20054;-76
2022/08/04 11:56:18;;;;;;;1999.90;999.90;;;;;;;38.30;19.56;98903.53;9954240;23;20110;-76
2022/08/04 12:00:50;;;;;;;1999.90;999.90;;;;;;;38.33;19.98;98903.13;9928601;23;20027;-76
2022/08/04 12:04:57;;;;;;;1999.90;999.90;;;;;;;38.50;19.53;98900.97;9978418;23;20411;-76
2022/08/04 12:09:25;;;;;;;1999.90;999.90;;;;;;;38.34;18.53;98902.09;9952305;23;20031;-76
2022/08/04 12:13:42;;;;;;;1999.90;999.90;;;;;;;38.43;19.02;98903.63;9976395;23;20110;-76
2022/08/04 12:18:04;;;;;;;1999.90;999.90;;;;;;;38.47;18.95;98901.34;9949398;23;20054;-76
2022/08/04 12:22:14;;;;;;;1999.90;999.90;;;;;;;38.31;18.88;98887.03;9979192;23;20069;-76
2022/08/04 12:26:27;;;;;;;1999.90;999.90;;;;;;;38.45;19.63;98889.88;9954503;23;20491;-76
2022/08/04 12:30:35;;;;;;;1999.90;999.90;;;;;;;38.51;19.93;98892.63;9990910;23;20490;-76
2022/08/04 12:35:13;;;;;;;1999.90;999.90;;;;;;;38.58;18.91;98885.34;9977213;23;20118;-76
2022/08/04 12:39:17;;;;;;;1999.90;999.90;;;;;;;38.76;19.37;98874.00;9978717;23;20467;-76
2022/08/04 12:43:33;;;;;;;1999.90;999.90;;;;;;;38.95;19.00;98869.72;9978911;23;20344;-76
2022/08/04 12:47:36;;;;;;;1999.90;999.90;;;;;;;38.98;19.60;98877.47;9974398;23;20038;-76
2022/08/04 12:51:41;;;;;;;1999.90;999.90;;;;;;;38.52;18.62;98878.00;9979130;23;20038;-76
2022/08/04 12:56:04;;;;;;;1999.90;999.90;;;;;;;38.19;19.95;98875.03;9974041;23;20030;-76
2022/08/04 13:00:08;;;;;;;1999.90;999.90;;;;;;;37.72;19.11;98871.06;9950529;23;20027;-76
2022/08/04 13:04:18;;;;;;;1999.90;999.90;;;;;;;37.57;20.02;98864.81;9977440;23;20126;-76
2022/08/04 13:08:21;;;;;;;1999.90;999.90;;;;;;;37.40;20.34;98866.09;9978167;23;20023;-76
2022/08/04 13:12:25;;;;;;;1999.90;999.90;;;;;;;37.56;20.93;98865.03;9993825;23;20043;-76
2022/08/04 13:16:33;;;;;;;1999.90;999.90;;;;;;;37.63;19.94;98858.63;9974938;23;20042;-77
2022/08/04 13:20:37;;;;;;;1999.90;999.90;;;;;;;37.79;20.46;98846.72;9979490;23;20065;-76
2022/08/04 13:24:42;;;;;;;1999.90;999.90;;;;;;;37.71;18.67;98857.69;9955741;23;20024;-76
2022/08/04 13:29:06;;;;;;;1999.90;999.90;;;;;;;37.40;20.22;98849.84;9955283;23;20027;-76
2022/08/04 13:33:18;;;;;;;1999.90;999.90;;;;;;;37.17;20.09;98845.41;9979141;23;20026;-76
2022/08/04 13:37:29;;;;;;;1999.90;999.90;;;;;;;37.19;20.85;98839.78;9994047;23;20027;-76
2022/08/04 13:41:32;;;;;;;1999.90;999.90;;;;;;;37.31;20.92;98840.16;9978487;23;20034;-75
2022/08/04 13:45:37;;;;;;;1999.90;999.90;;;;;;;37.64;21.26;98827.78;9948929;23;20022;-76
2022/08/04 13:49:39;;;;;;;1999.90;999.90;;;;;;;37.47;19.02;98834.50;9977216;23;20027;-76
2022/08/04 13:54:01;;;;;;;1999.90;999.90;;;;;;;37.15;19.74;98819.50;9958037;23;20023;-76
2022/08/04 13:58:08;;;;;;;1999.90;999.90;;;;;;;36.96;20.85;98823.66;9980307;23;20046;-76
2022/08/04 14:02:36;;;;;;;1999.90;999.90;;;;;;;36.74;21.10;98821.91;9973802;23;20028;-76
2022/08/04 14:06:52;;;;;;;1999.90;999.90;;;;;;;36.69;20.49;98817.06;9969250;23;20027;-76
2022/08/04 14:10:55;;;;;;;1999.90;999.90;;;;;;;36.70;21.63;98820.59;9964461;23;20304;-76
2022/08/04 14:14:57;;;;;;;1999.90;999.90;;;;;;;36.67;22.20;98811.00;9977869;23;20027;-75
2022/08/04 14:19:00;;;;;;;1999.90;999.90;;;;;;;36.64;21.59;98808.69;9973306;23;20035;-75
2022/08/04 14:23:02;;;;;;;1999.90;999.90;;;;;;;36.58;23.47;98812.94;9931351;23;20027;-76
2022/08/04 14:27:04;;;;;;;1999.90;999.90;;;;;;;36.42;21.26;98809.59;9954377;23;20023;-74
2022/08/04 14:31:14;;;;;;;1999.90;999.90;;;;;;;36.38;23.07;98808.28;9948310;23;20038;-74
2022/08/04 14:35:16;;;;;;;;;;;;;;;36.28;22.94;98797.72;9979194;23;20030;-74
2022/08/04 14:39:35;;;;;;;1999.90;999.90;;;;;;;36.25;22.40;98798.06;9978438;23;19968;-74
2022/08/04 14:43:50;;;;;;;1999.90;999.90;;;;;;;36.27;23.10;98799.59;9980214;23;20023;-74
2022/08/04 14:47:52;;;;;;;1999.90;999.90;;;;;;;36.23;23.54;98792.00;9974386;23;20806;-74
2022/08/04 14:51:58;;;;;;;1999.90;999.90;;;;;;;36.41;23.33;98794.38;9980952;23;20050;-74
2022/08/04 14:55:59;;;;;;;1999.90;999.90;;;;;;;36.76;22.56;98782.78;9931563;23;20692;-74
2022/08/04 15:00:01;;;;;;;1999.90;999.90;;;;;;;37.26;21.66;98789.28;9956517;23;20610;-74
2022/08/04 15:04:09;;;;;;;1999.90;999.90;;;;;;;37.50;20.59;98788.88;9978705;23;20048;-74
2022/08/04 15:08:14;;;;;;;1999.90;999.90;;;;;;;37.86;20.71;98793.41;9978027;23;20058;-74
2022/08/04 15:12:19;;;;;;;1999.90;999.90;;;;;;;38.15;20.13;98783.41;9952037;23;20344;-74
2022/08/04 15:16:22;;;;;;;1999.90;999.90;;;;;;;37.89;19.57;98789.47;9947648;23;20110;-74
2022/08/04 15:20:24;;;;;;;1999.90;999.90;;;;;;;37.59;20.08;98788.75;9977124;23;20023;-74
2022/08/04 15:24:26;;;;;;;1999.90;999.90;;;;;;;37.26;20.23;98782.97;9977768;23;20035;-74
2022/08/04 15:28:30;;;;;;;1999.90;999.90;;;;;;;36.90;21.38;98775.72;9977918;23;20677;-74
2022/08/04 15:32:50;;;;;;;1999.90;999.90;;;;;;;36.85;21.26;98770.03;9949478;23;20059;-74
2022/08/04 15:36:53;;;;;;;;;;;;;;;37.14;21.70;98774.50;9995140;23;20495;-74
2022/08/04 15:41:03;;;;;;;1999.90;999.90;;;;;;;37.31;20.92;98762.44;9995656;23;20183;-74
2022/08/04 15:45:22;;;;;;;1999.90;999.90;;;;;;;37.28;20.77;98757.41;9977001;23;20638;-74
2022/08/04 15:49:44;;;;;;;1999.90;999.90;;;;;;;37.49;20.82;98754.69;9980112;23;20027;-74
2022/08/04 15:54:12;;;;;;;1999.90;999.90;;;;;;;37.45;19.93;98755.28;9980964;23;20023;-74
2022/08/04 15:58:24;;;;;;;1999.90;999.90;;;;;;;37.37;20.99;98758.97;9979311;23;20024;-73
2022/08/04 16:02:32;;;;;;;1999.90;999.90;;;;;;;37.55;22.54;98749.56;9972701;23;20042;-73
2022/08/04 16:06:34;;;;;;;1999.90;999.90;;;;;;;37.44;20.13;98742.78;9951942;23;20377;-74
2022/08/04 16:10:43;;;;;;;1999.90;999.90;;;;;;;37.24;21.00;98744.44;9951942;23;20027;-73
2022/08/04 16:14:44;;;;;;;1999.90;999.90;;;;;;;36.93;22.37;98740.13;9992081;23;20015;-73
2022/08/04 16:18:46;;;;;;;1999.90;999.90;;;;;;;36.57;22.46;98732.81;9972032;23;20038;-73
2022/08/04 16:22:50;;;;;;;1999.90;999.90;;;;;;;36.22;22.17;98737.09;9977010;23;20445;-74
2022/08/04 16:27:07;;;;;;;1999.90;999.90;;;;;;;35.93;23.24;98737.94;9977865;23;20119;-73
2022/08/04 16:31:10;;;;;;;1999.90;999.90;;;;;;;35.77;23.97;98729.13;9973530;23;20478;-73
2022/08/04 16:35:33;;;;;;;1999.90;999.90;;;;;;;35.63;23.50;98730.75;9977932;23;20019;-73
2022/08/04 16:39:41;;;;;;;1999.90;999.90;;;;;;;35.52;24.36;98723.94;9977897;23;20030;-73
2022/08/04 16:44:11;;;;;;;1999.90;999.90;;;;;;;35.39;24.70;98723.72;9978493;23;20027;-73
2022/08/04 16:48:34;;;;;;;1999.90;999.90;;;;;;;35.29;25.19;98725.78;9948068;23;20194;-73
2022/08/04 16:52:48;;;;;;;1999.90;999.90;;;;;;;35.12;26.19;98722.38;9975937;23;20023;-74
2022/08/04 16:56:50;;;;;;;1999.90;999.90;;;;;;;35.02;25.46;98722.63;9976457;23;20022;-74
2022/08/04 17:00:52;;;;;;;1999.90;999.90;;;;;;;34.88;26.24;98725.25;9972637;23;20065;-74
2022/08/04 17:04:53;;;;;;;1999.90;999.90;;;;;;;34.61;24.03;98713.88;9953814;23;20435;-74
2022/08/04 17:09:10;;;;;;;1999.90;999.90;;;;;;;34.52;25.79;98712.25;9976370;23;20383;-74
2022/08/04 17:13:31;;;;;;;1999.90;999.90;;;;;;;34.50;25.26;98709.72;9977296;23;20463;-74
2022/08/04 17:18:12;;;;;;;;;;;;;;;34.36;26.13;98705.06;9951061;23;20656;-74
2022/08/04 17:22:14;;;;;;;1999.90;999.90;;;;;;;34.29;25.61;98705.91;9978324;23;20004;-74
2022/08/04 17:26:20;;;;;;;1999.90;999.90;;;;;;;34.14;26.83;98706.66;9978629;23;20110;-74
2022/08/04 17:30:26;;;;;;;1999.90;999.90;;;;;;;33.99;26.44;98711.06;9974023;23;20488;-74
2022/08/04 17:34:28;;;;;;;1999.90;999.90;;;;;;;33.84;27.82;98710.06;9977390;23;20035;-74
2022/08/04 17:38:39;;;;;;;1999.90;999.90;;;;;;;33.78;27.26;98708.06;9951093;23;20074;-74
2022/08/04 17:42:44;;;;;;;1999.90;999.90;;;;;;;33.77;27.17;98709.91;9978174;23;20027;-74
2022/08/04 17:46:47;;;;;;;1999.90;999.90;;;;;;;33.78;26.77;98710.75;9972633;23;20660;-74
2022/08/04 17:50:49;;;;;;;1999.90;999.90;;;;;;;33.78;26.43;98714.28;9954836;23;20037;-74
2022/08/04 17:54:58;;;;;;;1999.90;999.90;;;;;;;33.78;26.54;98722.38;9980034;23;20479;-74
2022/08/04 17:59:16;;;;;;;1999.90;999.90;;;;;;;33.73;26.29;98722.00;9995259;23;20027;-74
2022/08/04 18:03:38;;;;;;;1999.90;999.90;;;;;;;33.61;26.32;98724.22;9974206;23;20045;-74
2022/08/04 18:07:41;;;;;;;1999.90;999.90;;;;;;;33.55;26.90;98724.03;9980352;23;20110;-74
2022/08/04 18:12:05;;;;;;;1999.90;999.90;;;;;;;33.43;27.50;98728.94;9979321;23;20566;-75
2022/08/04 18:16:15;;;;;;;1999.90;999.90;;;;;;;33.19;30.13;98728.88;9975639;23;20031;-73
2022/08/04 18:20:26;;;;;;;1999.90;999.90;;;;;;;32.97;29.94;98733.91;9957468;23;20058;-74
2022/08/04 18:24:29;;;;;;;1999.90;999.90;;;;;;;32.68;29.98;98736.19;9996389;23;20796;-74
2022/08/04 18:28:51;;;;;;;1999.90;999.90;;;;;;;32.32;31.15;98739.06;9955746;23;20062;-74
2022/08/04 18:32:54;;;;;;;1999.90;999.90;;;;;;;31.92;32.61;98736.09;9974523;23;20463;-73
2022/08/04 18:37:16;;;;;;;1999.90;999.90;;;;;;;31.51;33.94;98752.72;9979606;23;20098;-74
2022/08/04 18:41:38;;;;;;;1999.90;999.90;;;;;;;31.11;34.50;98753.16;9979754;23;20066;-74